sensor_id;sensor_type;location;lat;lon;timestamp;temperature;humidity
18141;DHT22;9196;49.194;12.526;2022-12-18T00:02:08;-4.60;99.90
18141;DHT22;9196;49.194;12.526;2022-12-18T00:04:35;-4.60;99.90
18141;DHT22;9196;49.194;12.526;2022-12-18T00:07:03;-4.70;99.90
18141;DHT22;9196;49.194;12.526;2022-12-18T00:09:30;-4.70;99.90
18141;DHT22;9196;49.194;12.526;2022-12-18T00:11:57;-4.70;99.90
18141;DHT22;9196;49.194;12.526;2022-12-18T00:14:24;-4.60;99.90
18141;DHT22;9196;49.194;12.526;2022-12-18T00:16:51;-4.60;99.90
18141;DHT22;9196;49.194;12.526;2022-12-18T00:19:17;-4.60;99.90
18141;DHT22;9196;49.194;12.526;2022-12-18T00:21:44;-4.60;99.90
18141;DHT22;9196;49.194;12.526;2022-12-18T00:24:12;-4.50;99.90
18141;DHT22;9196;49.194;12.526;2022-12-18T00:26:39;-4.50;99.90
18141;DHT22;9196;49.194;12.526;2022-12-18T00:29:07;-4.50;99.90
18141;DHT22;9196;49.194;12.526;2022-12-18T00:31:34;-4.50;99.90
18141;DHT22;9196;49.194;12.526;2022-12-18T00:34:01;-4.40;99.90
18141;DHT22;9196;49.194;12.526;2022-12-18T00:36:30;-4.40;99.90
18141;DHT22;9196;49.194;12.526;2022-12-18T00:38:58;-4.40;99.90
18141;DHT22;9196;49.194;12.526;2022-12-18T00:41:26;-4.40;99.90
18141;DHT22;9196;49.194;12.526;2022-12-18T00:44:13;-4.30;99.90
18141;DHT22;9196;49.194;12.526;2022-12-18T00:46:40;-4.30;99.90
18141;DHT22;9196;49.194;12.526;2022-12-18T00:49:07;-4.20;99.90
18141;DHT22;9196;49.194;12.526;2022-12-18T00:51:34;-4.10;99.90
18141;DHT22;9196;49.194;12.526;2022-12-18T00:54:01;-4.10;99.90
18141;DHT22;9196;49.194;12.526;2022-12-18T00:56:30;-4.00;99.90
18141;DHT22;9196;49.194;12.526;2022-12-18T00:58:56;-4.00;99.90
18141;DHT22;9196;49.194;12.526;2022-12-18T01:01:23;-3.90;99.90
18141;DHT22;9196;49.194;12.526;2022-12-18T01:03:50;-3.90;99.90
18141;DHT22;9196;49.194;12.526;2022-12-18T01:06:17;-3.90;99.90
18141;DHT22;9196;49.194;12.526;2022-12-18T01:08:44;-3.90;99.90
18141;DHT22;9196;49.194;12.526;2022-12-18T01:11:12;-4.00;99.90
18141;DHT22;9196;49.194;12.526;2022-12-18T01:13:41;-4.10;99.90
18141;DHT22;9196;49.194;12.526;2022-12-18T01:16:11;-4.10;99.90
18141;DHT22;9196;49.194;12.526;2022-12-18T01:18:38;-4.10;99.90
18141;DHT22;9196;49.194;12.526;2022-12-18T01:21:06;-4.10;99.90
18141;DHT22;9196;49.194;12.526;2022-12-18T01:23:33;-4.10;99.90
18141;DHT22;9196;49.194;12.526;2022-12-18T01:26:04;-4.00;99.90
18141;DHT22;9196;49.194;12.526;2022-12-18T01:28:31;-4.00;99.90
18141;DHT22;9196;49.194;12.526;2022-12-18T01:31:11;-4.10;99.90
18141;DHT22;9196;49.194;12.526;2022-12-18T01:33:38;-4.20;99.90
18141;DHT22;9196;49.194;12.526;2022-12-18T01:36:05;-4.30;99.90
18141;DHT22;9196;49.194;12.526;2022-12-18T01:38:32;-4.30;99.90
18141;DHT22;9196;49.194;12.526;2022-12-18T01:40:59;-4.20;99.90
18141;DHT22;9196;49.194;12.526;2022-12-18T01:43:41;-4.20;99.90
18141;DHT22;9196;49.194;12.526;2022-12-18T01:46:09;-4.20;99.90
18141;DHT22;9196;49.194;12.526;2022-12-18T01:48:37;-4.10;99.90
18141;DHT22;9196;49.194;12.526;2022-12-18T01:51:06;-4.00;99.90
18141;DHT22;9196;49.194;12.526;2022-12-18T01:53:34;-3.90;99.90
18141;DHT22;9196;49.194;12.526;2022-12-18T01:56:02;-3.90;99.90
18141;DHT22;9196;49.194;12.526;2022-12-18T01:58:35;-3.90;99.90
18141;DHT22;9196;49.194;12.526;2022-12-18T02:01:03;-3.90;99.90
18141;DHT22;9196;49.194;12.526;2022-12-18T02:03:31;-3.90;99.90
18141;DHT22;9196;49.194;12.526;2022-12-18T02:06:03;-4.00;99.90
18141;DHT22;9196;49.194;12.526;2022-12-18T02:08:36;-4.10;99.90
18141;DHT22;9196;49.194;12.526;2022-12-18T02:11:08;-4.10;99.90
18141;DHT22;9196;49.194;12.526;2022-12-18T02:13:41;-4.10;99.90
18141;DHT22;9196;49.194;12.526;2022-12-18T02:16:16;-4.10;99.90
18141;DHT22;9196;49.194;12.526;2022-12-18T02:18:50;-4.10;99.90
18141;DHT22;9196;49.194;12.526;2022-12-18T02:21:24;-4.10;99.90
18141;DHT22;9196;49.194;12.526;2022-12-18T02:23:56;-4.20;99.90
18141;DHT22;9196;49.194;12.526;2022-12-18T02:26:35;-4.30;99.90
18141;DHT22;9196;49.194;12.526;2022-12-18T02:29:05;-4.20;99.90
18141;DHT22;9196;49.194;12.526;2022-12-18T02:31:39;-4.10;99.90
18141;DHT22;9196;49.194;12.526;2022-12-18T02:34:08;-4.10;99.90
18141;DHT22;9196;49.194;12.526;2022-12-18T02:36:37;-4.00;99.90
18141;DHT22;9196;49.194;12.526;2022-12-18T02:39:07;-3.90;99.90
18141;DHT22;9196;49.194;12.526;2022-12-18T02:41:37;-4.00;99.90
18141;DHT22;9196;49.194;12.526;2022-12-18T02:44:08;-4.00;99.90
18141;DHT22;9196;49.194;12.526;2022-12-18T02:46:38;-3.90;99.90
18141;DHT22;9196;49.194;12.526;2022-12-18T02:49:17;-3.90;99.90
18141;DHT22;9196;49.194;12.526;2022-12-18T02:51:51;-3.90;99.90
18141;DHT22;9196;49.194;12.526;2022-12-18T02:54:27;-3.90;99.90
18141;DHT22;9196;49.194;12.526;2022-12-18T02:57:10;-3.90;99.90
18141;DHT22;9196;49.194;12.526;2022-12-18T02:59:43;-4.00;99.90
18141;DHT22;9196;49.194;12.526;2022-12-18T03:02:20;-3.90;99.90
18141;DHT22;9196;49.194;12.526;2022-12-18T03:04:50;-3.90;99.90
18141;DHT22;9196;49.194;12.526;2022-12-18T03:07:21;-4.00;99.90
18141;DHT22;9196;49.194;12.526;2022-12-18T03:09:51;-4.10;99.90
18141;DHT22;9196;49.194;12.526;2022-12-18T03:12:24;-4.10;99.90
18141;DHT22;9196;49.194;12.526;2022-12-18T03:14:59;-4.20;99.90
18141;DHT22;9196;49.194;12.526;2022-12-18T03:17:28;-4.20;99.90
18141;DHT22;9196;49.194;12.526;2022-12-18T03:19:59;-4.20;99.90
18141;DHT22;9196;49.194;12.526;2022-12-18T03:22:30;-4.20;99.90
18141;DHT22;9196;49.194;12.526;2022-12-18T03:25:00;-4.20;99.90
18141;DHT22;9196;49.194;12.526;2022-12-18T03:27:31;-4.10;99.90
18141;DHT22;9196;49.194;12.526;2022-12-18T03:30:02;-4.00;99.90
18141;DHT22;9196;49.194;12.526;2022-12-18T03:32:38;-4.00;99.90
18141;DHT22;9196;49.194;12.526;2022-12-18T03:35:07;-4.00;99.90
18141;DHT22;9196;49.194;12.526;2022-12-18T03:37:35;-4.10;99.90
18141;DHT22;9196;49.194;12.526;2022-12-18T03:40:02;-4.30;99.90
18141;DHT22;9196;49.194;12.526;2022-12-18T03:42:35;-4.50;99.90
18141;DHT22;9196;49.194;12.526;2022-12-18T03:45:09;-4.40;99.90
18141;DHT22;9196;49.194;12.526;2022-12-18T03:47:43;-4.40;99.90
18141;DHT22;9196;49.194;12.526;2022-12-18T03:50:19;-4.30;99.90
18141;DHT22;9196;49.194;12.526;2022-12-18T03:52:50;-4.40;99.90
18141;DHT22;9196;49.194;12.526;2022-12-18T03:55:19;-4.40;99.90
18141;DHT22;9196;49.194;12.526;2022-12-18T03:57:49;-4.30;99.90
18141;DHT22;9196;49.194;12.526;2022-12-18T04:00:18;-4.30;99.90
18141;DHT22;9196;49.194;12.526;2022-12-18T04:02:50;-4.30;99.90
18141;DHT22;9196;49.194;12.526;2022-12-18T04:05:19;-4.30;99.90
18141;DHT22;9196;49.194;12.526;2022-12-18T04:07:48;-4.40;99.90
18141;DHT22;9196;49.194;12.526;2022-12-18T04:10:15;-4.40;99.90
18141;DHT22;9196;49.194;12.526;2022-12-18T04:12:43;-4.50;99.90
18141;DHT22;9196;49.194;12.526;2022-12-18T04:15:12;-4.70;99.90
18141;DHT22;9196;49.194;12.526;2022-12-18T04:17:41;-4.90;99.90
18141;DHT22;9196;49.194;12.526;2022-12-18T04:20:11;-5.00;99.90
18141;DHT22;9196;49.194;12.526;2022-12-18T04:22:38;-5.20;99.90
18141;DHT22;9196;49.194;12.526;2022-12-18T04:25:05;-5.30;99.90
18141;DHT22;9196;49.194;12.526;2022-12-18T04:27:32;-5.20;99.90
18141;DHT22;9196;49.194;12.526;2022-12-18T04:29:59;-5.20;99.90
18141;DHT22;9196;49.194;12.526;2022-12-18T04:32:27;-5.10;99.90
18141;DHT22;9196;49.194;12.526;2022-12-18T04:34:54;-5.20;99.90
18141;DHT22;9196;49.194;12.526;2022-12-18T04:37:21;-5.20;99.90
18141;DHT22;9196;49.194;12.526;2022-12-18T04:39:48;-5.20;99.90
18141;DHT22;9196;49.194;12.526;2022-12-18T04:42:14;-5.20;99.90
18141;DHT22;9196;49.194;12.526;2022-12-18T04:44:41;-5.20;99.90
18141;DHT22;9196;49.194;12.526;2022-12-18T04:47:08;-5.20;99.90
18141;DHT22;9196;49.194;12.526;2022-12-18T04:49:36;-5.20;99.90
18141;DHT22;9196;49.194;12.526;2022-12-18T04:52:03;-5.20;99.90
18141;DHT22;9196;49.194;12.526;2022-12-18T04:54:30;-5.30;99.90
18141;DHT22;9196;49.194;12.526;2022-12-18T04:56:56;-5.50;99.90
18141;DHT22;9196;49.194;12.526;2022-12-18T04:59:23;-5.50;99.90
18141;DHT22;9196;49.194;12.526;2022-12-18T05:01:50;-5.60;99.90
18141;DHT22;9196;49.194;12.526;2022-12-18T05:04:17;-5.80;99.90
18141;DHT22;9196;49.194;12.526;2022-12-18T05:06:45;-6.10;99.90
18141;DHT22;9196;49.194;12.526;2022-12-18T05:09:12;-6.30;99.90
18141;DHT22;9196;49.194;12.526;2022-12-18T05:11:38;-6.40;99.90
18141;DHT22;9196;49.194;12.526;2022-12-18T05:14:05;-6.40;99.90
18141;DHT22;9196;49.194;12.526;2022-12-18T05:16:32;-6.30;99.90
18141;DHT22;9196;49.194;12.526;2022-12-18T05:18:59;-6.30;99.90
18141;DHT22;9196;49.194;12.526;2022-12-18T05:21:26;-6.30;99.90
18141;DHT22;9196;49.194;12.526;2022-12-18T05:23:54;-6.40;99.90
18141;DHT22;9196;49.194;12.526;2022-12-18T05:26:21;-6.40;99.90
18141;DHT22;9196;49.194;12.526;2022-12-18T05:28:47;-6.40;99.90
18141;DHT22;9196;49.194;12.526;2022-12-18T05:31:14;-6.40;99.90
18141;DHT22;9196;49.194;12.526;2022-12-18T05:33:41;-6.40;99.90
18141;DHT22;9196;49.194;12.526;2022-12-18T05:36:09;-6.40;99.90
18141;DHT22;9196;49.194;12.526;2022-12-18T05:38:37;-6.30;99.90
18141;DHT22;9196;49.194;12.526;2022-12-18T05:41:06;-6.30;99.90
18141;DHT22;9196;49.194;12.526;2022-12-18T05:43:34;-6.20;99.90
18141;DHT22;9196;49.194;12.526;2022-12-18T05:46:04;-6.20;99.90
18141;DHT22;9196;49.194;12.526;2022-12-18T05:48:32;-6.10;99.90
18141;DHT22;9196;49.194;12.526;2022-12-18T05:51:04;-6.00;99.90
18141;DHT22;9196;49.194;12.526;2022-12-18T05:53:32;-5.80;99.90
18141;DHT22;9196;49.194;12.526;2022-12-18T05:56:00;-5.70;99.90
18141;DHT22;9196;49.194;12.526;2022-12-18T05:58:29;-5.70;99.90
18141;DHT22;9196;49.194;12.526;2022-12-18T06:00:57;-5.60;99.90
18141;DHT22;9196;49.194;12.526;2022-12-18T06:03:24;-5.50;99.90
18141;DHT22;9196;49.194;12.526;2022-12-18T06:05:51;-5.60;99.90
18141;DHT22;9196;49.194;12.526;2022-12-18T06:08:17;-5.60;99.90
18141;DHT22;9196;49.194;12.526;2022-12-18T06:10:50;-5.70;99.90
18141;DHT22;9196;49.194;12.526;2022-12-18T06:13:17;-5.70;99.90
18141;DHT22;9196;49.194;12.526;2022-12-18T06:15:46;-5.70;99.90
18141;DHT22;9196;49.194;12.526;2022-12-18T06:18:13;-5.80;99.90
18141;DHT22;9196;49.194;12.526;2022-12-18T06:20:39;-5.80;99.90
18141;DHT22;9196;49.194;12.526;2022-12-18T06:23:07;-5.80;99.90
18141;DHT22;9196;49.194;12.526;2022-12-18T06:25:38;-5.80;99.90
18141;DHT22;9196;49.194;12.526;2022-12-18T06:28:05;-5.70;99.90
18141;DHT22;9196;49.194;12.526;2022-12-18T06:30:32;-5.20;99.90
18141;DHT22;9196;49.194;12.526;2022-12-18T06:33:03;-5.00;99.90
18141;DHT22;9196;49.194;12.526;2022-12-18T06:35:29;-5.00;99.90
18141;DHT22;9196;49.194;12.526;2022-12-18T06:38:04;-5.20;99.90
18141;DHT22;9196;49.194;12.526;2022-12-18T06:40:30;-5.50;99.90
18141;DHT22;9196;49.194;12.526;2022-12-18T06:42:57;-5.60;99.90
18141;DHT22;9196;49.194;12.526;2022-12-18T06:45:24;-5.80;99.90
18141;DHT22;9196;49.194;12.526;2022-12-18T06:47:51;-5.90;99.90
18141;DHT22;9196;49.194;12.526;2022-12-18T06:50:20;-6.00;99.90
18141;DHT22;9196;49.194;12.526;2022-12-18T06:52:47;-6.20;99.90
18141;DHT22;9196;49.194;12.526;2022-12-18T06:55:14;-6.30;99.90
18141;DHT22;9196;49.194;12.526;2022-12-18T06:57:41;-6.40;99.90
18141;DHT22;9196;49.194;12.526;2022-12-18T07:00:08;-6.50;99.90
18141;DHT22;9196;49.194;12.526;2022-12-18T07:02:35;-6.50;99.90
18141;DHT22;9196;49.194;12.526;2022-12-18T07:05:02;-6.40;99.90
18141;DHT22;9196;49.194;12.526;2022-12-18T07:07:31;-6.50;99.90
18141;DHT22;9196;49.194;12.526;2022-12-18T07:09:57;-6.60;99.90
18141;DHT22;9196;49.194;12.526;2022-12-18T07:12:24;-6.60;99.90
18141;DHT22;9196;49.194;12.526;2022-12-18T07:14:51;-6.60;99.90
18141;DHT22;9196;49.194;12.526;2022-12-18T07:17:18;-6.70;99.90
18141;DHT22;9196;49.194;12.526;2022-12-18T07:19:45;-6.80;99.90
18141;DHT22;9196;49.194;12.526;2022-12-18T07:22:11;-6.80;99.90
18141;DHT22;9196;49.194;12.526;2022-12-18T07:24:39;-6.90;99.90
18141;DHT22;9196;49.194;12.526;2022-12-18T07:27:06;-6.90;99.90
18141;DHT22;9196;49.194;12.526;2022-12-18T07:29:33;-6.80;99.90
18141;DHT22;9196;49.194;12.526;2022-12-18T07:32:00;-6.80;99.90
18141;DHT22;9196;49.194;12.526;2022-12-18T07:34:27;-6.80;99.90
18141;DHT22;9196;49.194;12.526;2022-12-18T07:36:53;-6.80;99.90
18141;DHT22;9196;49.194;12.526;2022-12-18T07:39:20;-6.80;99.90
18141;DHT22;9196;49.194;12.526;2022-12-18T07:41:48;-6.90;99.90
18141;DHT22;9196;49.194;12.526;2022-12-18T07:44:36;-7.00;99.90
18141;DHT22;9196;49.194;12.526;2022-12-18T07:47:03;-7.00;99.90
18141;DHT22;9196;49.194;12.526;2022-12-18T07:49:29;-7.00;99.90
18141;DHT22;9196;49.194;12.526;2022-12-18T07:51:57;-6.90;99.90
18141;DHT22;9196;49.194;12.526;2022-12-18T07:54:25;-6.90;99.90
18141;DHT22;9196;49.194;12.526;2022-12-18T07:56:53;-6.90;99.90
18141;DHT22;9196;49.194;12.526;2022-12-18T07:59:20;-6.80;99.90
18141;DHT22;9196;49.194;12.526;2022-12-18T08:01:47;-7.00;99.90
18141;DHT22;9196;49.194;12.526;2022-12-18T08:04:14;-6.70;99.90
18141;DHT22;9196;49.194;12.526;2022-12-18T08:06:40;-6.50;99.90
18141;DHT22;9196;49.194;12.526;2022-12-18T08:09:09;-6.40;99.90
18141;DHT22;9196;49.194;12.526;2022-12-18T08:11:36;-6.40;99.90
18141;DHT22;9196;49.194;12.526;2022-12-18T08:14:04;-6.30;99.90
18141;DHT22;9196;49.194;12.526;2022-12-18T08:16:31;-6.30;99.90
18141;DHT22;9196;49.194;12.526;2022-12-18T08:18:57;-6.40;99.90
18141;DHT22;9196;49.194;12.526;2022-12-18T08:21:26;-6.40;99.90
18141;DHT22;9196;49.194;12.526;2022-12-18T08:23:55;-6.50;99.90
18141;DHT22;9196;49.194;12.526;2022-12-18T08:26:23;-6.50;99.90
18141;DHT22;9196;49.194;12.526;2022-12-18T08:28:50;-6.10;99.90
18141;DHT22;9196;49.194;12.526;2022-12-18T08:31:19;-5.90;99.90
18141;DHT22;9196;49.194;12.526;2022-12-18T08:33:48;-5.90;99.90
18141;DHT22;9196;49.194;12.526;2022-12-18T08:36:16;-5.90;99.90
18141;DHT22;9196;49.194;12.526;2022-12-18T08:38:43;-6.00;99.60
18141;DHT22;9196;49.194;12.526;2022-12-18T08:41:13;-6.20;99.80
18141;DHT22;9196;49.194;12.526;2022-12-18T08:43:40;-6.10;99.90
18141;DHT22;9196;49.194;12.526;2022-12-18T08:46:27;-6.10;99.90
18141;DHT22;9196;49.194;12.526;2022-12-18T08:48:57;-6.00;99.90
18141;DHT22;9196;49.194;12.526;2022-12-18T08:51:24;-6.00;99.90
18141;DHT22;9196;49.194;12.526;2022-12-18T08:53:50;-6.00;99.90
18141;DHT22;9196;49.194;12.526;2022-12-18T08:56:18;-5.90;99.90
18141;DHT22;9196;49.194;12.526;2022-12-18T08:58:44;-6.00;99.90
18141;DHT22;9196;49.194;12.526;2022-12-18T09:01:12;-5.90;99.90
18141;DHT22;9196;49.194;12.526;2022-12-18T09:03:41;-5.70;99.90
18141;DHT22;9196;49.194;12.526;2022-12-18T09:06:08;-5.70;99.90
18141;DHT22;9196;49.194;12.526;2022-12-18T09:08:35;-5.60;99.90
18141;DHT22;9196;49.194;12.526;2022-12-18T09:11:02;-5.50;99.90
18141;DHT22;9196;49.194;12.526;2022-12-18T09:13:29;-5.50;99.90
18141;DHT22;9196;49.194;12.526;2022-12-18T09:15:55;-5.60;99.90
18141;DHT22;9196;49.194;12.526;2022-12-18T09:18:23;-5.60;99.90
18141;DHT22;9196;49.194;12.526;2022-12-18T09:20:51;-5.70;99.90
18141;DHT22;9196;49.194;12.526;2022-12-18T09:23:18;-5.60;99.90
18141;DHT22;9196;49.194;12.526;2022-12-18T09:25:45;-5.60;99.90
18141;DHT22;9196;49.194;12.526;2022-12-18T09:28:14;-5.60;99.90
18141;DHT22;9196;49.194;12.526;2022-12-18T09:30:42;-5.50;99.90
18141;DHT22;9196;49.194;12.526;2022-12-18T09:33:10;-5.40;99.90
18141;DHT22;9196;49.194;12.526;2022-12-18T09:35:37;-5.40;99.90
18141;DHT22;9196;49.194;12.526;2022-12-18T09:38:07;-5.40;99.90
18141;DHT22;9196;49.194;12.526;2022-12-18T09:40:39;-5.40;99.90
18141;DHT22;9196;49.194;12.526;2022-12-18T09:43:14;-5.50;99.90
18141;DHT22;9196;49.194;12.526;2022-12-18T09:45:44;-5.50;99.90
18141;DHT22;9196;49.194;12.526;2022-12-18T09:48:15;-5.40;99.90
18141;DHT22;9196;49.194;12.526;2022-12-18T09:50:45;-5.30;99.90
18141;DHT22;9196;49.194;12.526;2022-12-18T09:53:17;-5.20;99.90
18141;DHT22;9196;49.194;12.526;2022-12-18T09:55:46;-5.10;99.90
18141;DHT22;9196;49.194;12.526;2022-12-18T09:58:19;-5.10;99.90
18141;DHT22;9196;49.194;12.526;2022-12-18T10:00:47;-5.00;99.90
18141;DHT22;9196;49.194;12.526;2022-12-18T10:03:15;-5.00;99.90
18141;DHT22;9196;49.194;12.526;2022-12-18T10:05:48;-5.10;99.90
18141;DHT22;9196;49.194;12.526;2022-12-18T10:08:24;-5.40;99.90
18141;DHT22;9196;49.194;12.526;2022-12-18T10:10:56;-5.50;99.90
18141;DHT22;9196;49.194;12.526;2022-12-18T10:13:30;-5.50;99.90
18141;DHT22;9196;49.194;12.526;2022-12-18T10:16:09;-5.40;99.90
18141;DHT22;9196;49.194;12.526;2022-12-18T10:18:55;-5.30;99.90
18141;DHT22;9196;49.194;12.526;2022-12-18T10:21:30;-5.10;99.90
18141;DHT22;9196;49.194;12.526;2022-12-18T10:24:05;-5.00;99.90
18141;DHT22;9196;49.194;12.526;2022-12-18T10:26:36;-4.80;99.90
18141;DHT22;9196;49.194;12.526;2022-12-18T10:29:06;-4.60;99.90
18141;DHT22;9196;49.194;12.526;2022-12-18T10:31:35;-4.40;99.90
18141;DHT22;9196;49.194;12.526;2022-12-18T10:34:02;-4.10;99.90
18141;DHT22;9196;49.194;12.526;2022-12-18T10:36:29;-3.90;99.90
18141;DHT22;9196;49.194;12.526;2022-12-18T10:39:16;-3.70;99.90
18141;DHT22;9196;49.194;12.526;2022-12-18T10:41:43;-3.60;99.90
18141;DHT22;9196;49.194;12.526;2022-12-18T10:44:17;-3.40;99.90
18141;DHT22;9196;49.194;12.526;2022-12-18T10:46:46;-3.30;99.90
18141;DHT22;9196;49.194;12.526;2022-12-18T10:49:20;-3.30;99.90
18141;DHT22;9196;49.194;12.526;2022-12-18T10:51:48;-3.40;99.60
18141;DHT22;9196;49.194;12.526;2022-12-18T10:54:19;-3.60;99.20
18141;DHT22;9196;49.194;12.526;2022-12-18T10:56:47;-3.80;99.90
18141;DHT22;9196;49.194;12.526;2022-12-18T10:59:16;-3.70;99.90
18141;DHT22;9196;49.194;12.526;2022-12-18T11:01:49;-3.40;99.90
18141;DHT22;9196;49.194;12.526;2022-12-18T11:04:19;-3.10;99.90
18141;DHT22;9196;49.194;12.526;2022-12-18T11:06:56;-2.90;99.90
18141;DHT22;9196;49.194;12.526;2022-12-18T11:09:25;-2.80;99.90
18141;DHT22;9196;49.194;12.526;2022-12-18T11:11:54;-3.00;99.70
18141;DHT22;9196;49.194;12.526;2022-12-18T11:14:23;-3.10;99.70
18141;DHT22;9196;49.194;12.526;2022-12-18T11:16:52;-3.10;99.60
18141;DHT22;9196;49.194;12.526;2022-12-18T11:19:30;-3.40;99.10
18141;DHT22;9196;49.194;12.526;2022-12-18T11:21:58;-3.30;99.30
18141;DHT22;9196;49.194;12.526;2022-12-18T11:24:29;-3.20;99.60
18141;DHT22;9196;49.194;12.526;2022-12-18T11:26:58;-2.90;99.90
18141;DHT22;9196;49.194;12.526;2022-12-18T11:29:37;-2.70;98.80
18141;DHT22;9196;49.194;12.526;2022-12-18T11:32:38;-2.40;98.80
18141;DHT22;9196;49.194;12.526;2022-12-18T11:35:16;-2.10;98.00
18141;DHT22;9196;49.194;12.526;2022-12-18T11:37:49;-2.10;96.80
18141;DHT22;9196;49.194;12.526;2022-12-18T11:40:20;-2.10;96.60
18141;DHT22;9196;49.194;12.526;2022-12-18T11:42:53;-1.90;96.60
18141;DHT22;9196;49.194;12.526;2022-12-18T11:45:28;-2.00;97.00
18141;DHT22;9196;49.194;12.526;2022-12-18T11:48:00;-1.80;97.10
18141;DHT22;9196;49.194;12.526;2022-12-18T11:50:33;-1.50;96.40
18141;DHT22;9196;49.194;12.526;2022-12-18T11:53:00;-1.40;95.70
18141;DHT22;9196;49.194;12.526;2022-12-18T11:55:37;-1.30;94.50
18141;DHT22;9196;49.194;12.526;2022-12-18T11:58:12;-1.30;94.40
18141;DHT22;9196;49.194;12.526;2022-12-18T12:00:48;-1.20;94.40
18141;DHT22;9196;49.194;12.526;2022-12-18T12:03:27;-1.10;94.30
18141;DHT22;9196;49.194;12.526;2022-12-18T12:06:10;-1.00;94.10
18141;DHT22;9196;49.194;12.526;2022-12-18T12:08:51;-0.80;94.00
18141;DHT22;9196;49.194;12.526;2022-12-18T12:11:27;-0.60;94.20
18141;DHT22;9196;49.194;12.526;2022-12-18T12:14:12;-0.40;93.80
18141;DHT22;9196;49.194;12.526;2022-12-18T12:16:46;-0.30;93.60
18141;DHT22;9196;49.194;12.526;2022-12-18T12:19:32;-0.20;93.30
18141;DHT22;9196;49.194;12.526;2022-12-18T12:22:10;-0.20;92.80
18141;DHT22;9196;49.194;12.526;2022-12-18T12:24:49;-0.20;93.00
18141;DHT22;9196;49.194;12.526;2022-12-18T12:27:26;-0.10;93.00
18141;DHT22;9196;49.194;12.526;2022-12-18T12:30:02;0.00;92.90
18141;DHT22;9196;49.194;12.526;2022-12-18T12:32:42;0.10;93.20
18141;DHT22;9196;49.194;12.526;2022-12-18T12:35:24;0.20;92.90
18141;DHT22;9196;49.194;12.526;2022-12-18T12:38:03;0.30;92.50
18141;DHT22;9196;49.194;12.526;2022-12-18T12:40:34;0.40;92.60
18141;DHT22;9196;49.194;12.526;2022-12-18T12:43:10;0.40;91.10
18141;DHT22;9196;49.194;12.526;2022-12-18T12:45:45;0.10;91.00
18141;DHT22;9196;49.194;12.526;2022-12-18T12:48:18;-0.30;90.90
18141;DHT22;9196;49.194;12.526;2022-12-18T12:50:46;-0.50;90.90
18141;DHT22;9196;49.194;12.526;2022-12-18T12:53:22;-0.90;90.90
18141;DHT22;9196;49.194;12.526;2022-12-18T12:55:50;-0.90;91.40
18141;DHT22;9196;49.194;12.526;2022-12-18T12:58:24;-1.10;91.60
18141;DHT22;9196;49.194;12.526;2022-12-18T13:01:01;-1.30;91.60
18141;DHT22;9196;49.194;12.526;2022-12-18T13:03:42;-2.00;91.90
18141;DHT22;9196;49.194;12.526;2022-12-18T13:06:16;-2.30;92.80
18141;DHT22;9196;49.194;12.526;2022-12-18T13:08:54;-2.60;93.10
18141;DHT22;9196;49.194;12.526;2022-12-18T13:11:38;-2.70;93.80
18141;DHT22;9196;49.194;12.526;2022-12-18T13:14:27;-2.90;94.10
18141;DHT22;9196;49.194;12.526;2022-12-18T13:17:14;-3.60;99.90
18141;DHT22;9196;49.194;12.526;2022-12-18T13:19:43;-2.30;99.90
18141;DHT22;9196;49.194;12.526;2022-12-18T13:22:21;-2.00;99.90
18141;DHT22;9196;49.194;12.526;2022-12-18T13:24:48;-1.50;99.90
18141;DHT22;9196;49.194;12.526;2022-12-18T13:27:46;-2.20;96.20
18141;DHT22;9196;49.194;12.526;2022-12-18T13:30:56;-2.70;95.50
18141;DHT22;9196;49.194;12.526;2022-12-18T13:33:39;-3.10;95.50
18141;DHT22;9196;49.194;12.526;2022-12-18T13:36:16;-3.50;95.90
18141;DHT22;9196;49.194;12.526;2022-12-18T13:39:21;-3.90;96.70
18141;DHT22;9196;49.194;12.526;2022-12-18T13:41:49;-4.20;97.20
18141;DHT22;9196;49.194;12.526;2022-12-18T13:44:25;-4.30;97.60
18141;DHT22;9196;49.194;12.526;2022-12-18T13:46:54;-4.80;98.00
18141;DHT22;9196;49.194;12.526;2022-12-18T13:49:24;-4.90;98.60
18141;DHT22;9196;49.194;12.526;2022-12-18T13:51:53;-5.10;99.10
18141;DHT22;9196;49.194;12.526;2022-12-18T13:54:25;-5.10;99.40
18141;DHT22;9196;49.194;12.526;2022-12-18T13:56:55;-5.30;99.90
18141;DHT22;9196;49.194;12.526;2022-12-18T13:59:23;-5.30;99.80
18141;DHT22;9196;49.194;12.526;2022-12-18T14:01:54;-5.30;99.80
18141;DHT22;9196;49.194;12.526;2022-12-18T14:04:27;-5.30;99.60
18141;DHT22;9196;49.194;12.526;2022-12-18T14:07:01;-5.20;99.80
18141;DHT22;9196;49.194;12.526;2022-12-18T14:09:33;-4.60;99.90
18141;DHT22;9196;49.194;12.526;2022-12-18T14:12:01;-3.90;99.90
18141;DHT22;9196;49.194;12.526;2022-12-18T14:14:47;-3.60;99.90
18141;DHT22;9196;49.194;12.526;2022-12-18T14:17:17;-3.50;99.90
18141;DHT22;9196;49.194;12.526;2022-12-18T14:19:45;-3.80;98.30
18141;DHT22;9196;49.194;12.526;2022-12-18T14:22:17;-4.20;97.80
18141;DHT22;9196;49.194;12.526;2022-12-18T14:24:46;-4.40;98.00
18141;DHT22;9196;49.194;12.526;2022-12-18T14:27:20;-4.70;98.00
18141;DHT22;9196;49.194;12.526;2022-12-18T14:29:48;-5.10;98.50
18141;DHT22;9196;49.194;12.526;2022-12-18T14:32:17;-5.30;99.10
18141;DHT22;9196;49.194;12.526;2022-12-18T14:34:46;-5.50;99.50
18141;DHT22;9196;49.194;12.526;2022-12-18T14:37:14;-5.70;99.80
18141;DHT22;9196;49.194;12.526;2022-12-18T14:39:55;-5.70;99.90
18141;DHT22;9196;49.194;12.526;2022-12-18T14:42:23;-5.70;99.90
18141;DHT22;9196;49.194;12.526;2022-12-18T14:47:55;-5.70;99.90
18141;DHT22;9196;49.194;12.526;2022-12-18T14:50:22;-5.80;99.90
18141;DHT22;9196;49.194;12.526;2022-12-18T14:52:49;-6.00;99.90
18141;DHT22;9196;49.194;12.526;2022-12-18T14:55:17;-6.00;99.90
18141;DHT22;9196;49.194;12.526;2022-12-18T14:57:44;-5.90;99.90
18141;DHT22;9196;49.194;12.526;2022-12-18T15:00:17;-6.00;99.70
18141;DHT22;9196;49.194;12.526;2022-12-18T15:02:46;-6.20;99.90
18141;DHT22;9196;49.194;12.526;2022-12-18T15:05:19;-6.20;99.90
18141;DHT22;9196;49.194;12.526;2022-12-18T15:07:48;-6.50;99.90
18141;DHT22;9196;49.194;12.526;2022-12-18T15:10:18;-6.60;99.90
18141;DHT22;9196;49.194;12.526;2022-12-18T15:12:47;-6.60;99.90
18141;DHT22;9196;49.194;12.526;2022-12-18T15:15:46;-6.50;99.90
18141;DHT22;9196;49.194;12.526;2022-12-18T15:18:15;-6.30;99.90
18141;DHT22;9196;49.194;12.526;2022-12-18T15:20:48;-6.20;99.90
18141;DHT22;9196;49.194;12.526;2022-12-18T15:23:17;-6.00;99.90
18141;DHT22;9196;49.194;12.526;2022-12-18T15:25:45;-6.30;99.90
18141;DHT22;9196;49.194;12.526;2022-12-18T15:28:22;-6.40;99.90
18141;DHT22;9196;49.194;12.526;2022-12-18T15:31:05;-6.60;99.90
18141;DHT22;9196;49.194;12.526;2022-12-18T15:33:34;-6.60;99.90
18141;DHT22;9196;49.194;12.526;2022-12-18T15:36:04;-6.70;99.90
18141;DHT22;9196;49.194;12.526;2022-12-18T15:38:32;-6.80;99.90
18141;DHT22;9196;49.194;12.526;2022-12-18T15:40:58;-6.80;99.90
18141;DHT22;9196;49.194;12.526;2022-12-18T15:43:26;-6.70;99.90
18141;DHT22;9196;49.194;12.526;2022-12-18T15:46:04;-6.80;99.90
18141;DHT22;9196;49.194;12.526;2022-12-18T15:48:38;-6.90;99.90
18141;DHT22;9196;49.194;12.526;2022-12-18T15:51:13;-6.90;99.90
18141;DHT22;9196;49.194;12.526;2022-12-18T15:53:41;-7.00;99.90
18141;DHT22;9196;49.194;12.526;2022-12-18T15:56:10;-6.90;99.90